Time;durP1;ratioP1;P1;durP2;ratioP2;P2;SDS_P1;SDS_P2;PMS_P1;PMS_P2;Temp;Humidity;BMP_temperature;BMP_pressure;BME280_temperature;BME280_humidity;BME280_pressure;Samples;Min_cycle;Max_cycle;Signal;HPM_P1;HPM_P2
2022/05/06 00:01:53;;;;;;;10.60;6.20;;;23.80;63.80;;;;;;215566;1293;25496;-45
2022/05/06 00:06:58;;;;;;;10.70;6.60;;;23.70;64.20;;;;;;215333;1293;25466;-44
2022/05/06 00:12:02;;;;;;;9.40;6.30;;;23.70;64.00;;;;;;215315;1293;23045;-42
2022/05/06 00:17:09;;;;;;;9.10;6.20;;;23.70;64.00;;;;;;215258;1293;22590;-42
2022/05/06 00:22:13;;;;;;;9.20;6.30;;;23.70;64.10;;;;;;215186;1296;23590;-41
2022/05/06 00:27:17;;;;;;;9.90;6.30;;;23.80;64.10;;;;;;215282;1293;24316;-42
2022/05/06 00:32:21;;;;;;;9.20;6.10;;;23.80;63.90;;;;;;215610;1293;25349;-43
2022/05/06 00:37:24;;;;;;;9.30;6.00;;;23.80;63.60;;;;;;215628;1293;22730;-44
2022/05/06 00:42:28;;;;;;;7.40;5.70;;;24.00;64.10;;;;;;215689;1293;22563;-44
2022/05/06 00:47:34;;;;;;;10.10;5.50;;;24.10;63.20;;;;;;215465;1293;25339;-44
2022/05/06 00:52:39;;;;;;;8.50;5.90;;;24.10;63.00;;;;;;215306;1293;24253;-43
2022/05/06 00:57:43;;;;;;;10.00;5.70;;;24.10;62.80;;;;;;215798;1293;22576;-44
2022/05/06 01:02:48;;;;;;;22.10;8.80;;;24.10;62.70;;;;;;219208;1281;67155;-56
2022/05/06 01:07:52;;;;;;;8.00;5.20;;;24.00;63.10;;;;;;216492;1293;22634;-56
2022/05/06 01:12:57;;;;;;;10.70;5.20;;;23.90;62.80;;;;;;215443;1293;22576;-57
2022/05/06 01:18:02;;;;;;;8.30;5.10;;;23.90;62.60;;;;;;215493;1294;22562;-57
2022/05/06 01:23:07;;;;;;;8.90;5.40;;;23.90;62.70;;;;;;215681;1293;25503;-57
2022/05/06 01:28:13;;;;;;;9.60;5.70;;;23.80;63.10;;;;;;215596;1293;24110;-56
2022/05/06 01:33:21;;;;;;;7.50;5.00;;;23.80;63.30;;;;;;215684;1293;22602;-57
2022/05/06 01:38:42;;;;;;;6.70;5.00;;;23.70;62.80;;;;;;215762;1293;22615;-56
2022/05/06 01:43:52;;;;;;;7.70;5.20;;;23.70;62.80;;;;;;215000;1293;22595;-59
2022/05/06 01:48:57;;;;;;;6.50;4.70;;;23.70;62.60;;;;;;216075;1293;25270;-58
2022/05/06 01:54:04;;;;;;;8.10;5.40;;;23.70;62.60;;;;;;215797;1293;25278;-56
2022/05/06 01:59:09;;;;;;;7.60;5.20;;;23.60;62.50;;;;;;215981;1293;22596;-58
2022/05/06 02:09:37;;;;;;;8.70;5.20;;;23.60;62.50;;;;;;215502;1293;22561;-58
2022/05/06 02:14:46;;;;;;;6.80;5.10;;;23.60;62.70;;;;;;215562;1293;22559;-57
2022/05/06 02:20:03;;;;;;;7.60;5.00;;;23.60;62.50;;;;;;215759;1293;22607;-56
2022/05/06 02:25:13;;;;;;;7.10;5.20;;;23.60;62.50;;;;;;215733;1293;25385;-53
2022/05/06 02:36:07;;;;;;;8.60;4.70;;;23.50;62.70;;;;;;215434;1296;26738;-58
2022/05/06 02:41:14;;;;;;;7.10;4.80;;;23.50;62.00;;;;;;215842;1294;22602;-57
2022/05/06 02:46:25;;;;;;;7.40;5.00;;;23.50;62.50;;;;;;215487;1296;22560;-57
2022/05/06 02:51:30;;;;;;;7.80;4.70;;;23.50;62.40;;;;;;215485;1296;25380;-58
2022/05/06 02:56:35;;;;;;;8.10;5.30;;;23.50;62.60;;;;;;215333;1296;22587;-57
2022/05/06 03:01:40;;;;;;;6.80;4.40;;;23.40;62.30;;;;;;215437;1296;25356;-59
2022/05/06 03:06:46;;;;;;;7.30;4.90;;;23.40;62.60;;;;;;215282;1293;24321;-57
2022/05/06 03:12:01;;;;;;;7.30;5.00;;;23.40;62.20;;;;;;215592;1293;22971;-54
2022/05/06 03:17:06;;;;;;;6.30;4.30;;;23.30;62.10;;;;;;215785;1293;23915;-59
2022/05/06 03:22:11;;;;;;;6.50;4.50;;;23.30;62.10;;;;;;215983;1293;22582;-54
2022/05/06 03:32:37;;;;;;;6.60;4.70;;;23.30;62.00;;;;;;215956;1293;22739;-60
2022/05/06 03:37:42;;;;;;;6.00;4.50;;;23.30;61.90;;;;;;215949;1293;22588;-56
2022/05/06 03:42:46;;;;;;;6.70;4.50;;;23.30;61.90;;;;;;215581;1293;26506;-55
2022/05/06 03:47:52;;;;;;;6.50;4.10;;;23.30;61.60;;;;;;215461;1293;25391;-56
2022/05/06 03:52:58;;;;;;;8.40;4.10;;;23.30;62.20;;;;;;215430;1293;25684;-58
2022/05/06 03:58:03;;;;;;;5.90;4.20;;;23.30;61.90;;;;;;215778;1293;22633;-56
2022/05/06 04:03:07;;;;;;;5.80;3.90;;;23.30;62.10;;;;;;215643;1293;26536;-58
2022/05/06 04:08:11;;;;;;;6.50;4.60;;;23.30;61.50;;;;;;215430;1293;22712;-53
2022/05/06 04:13:19;;;;;;;6.50;4.00;;;23.20;61.90;;;;;;215882;1293;24360;-57
2022/05/06 04:18:23;;;;;;;5.20;4.10;;;23.20;61.90;;;;;;215915;1293;22591;-52
2022/05/06 04:23:29;;;;;;;7.20;4.30;;;23.20;62.00;;;;;;215508;1293;285565;-58
2022/05/06 04:28:36;;;;;;;5.80;4.00;;;23.20;61.90;;;;;;215258;1296;26743;-56
2022/05/06 04:33:40;;;;;;;6.60;4.10;;;23.20;62.50;;;;;;215711;1293;23122;-57
2022/05/06 04:38:53;;;;;;;5.30;4.00;;;23.20;61.80;;;;;;215990;1293;25317;-56
2022/05/06 04:43:57;;;;;;;6.00;4.40;;;23.20;61.40;;;;;;215580;1293;22645;-59
2022/05/06 04:49:03;;;;;;;4.90;4.00;;;23.20;61.60;;;;;;215623;1293;22655;-57
2022/05/06 04:54:10;;;;;;;6.80;3.80;;;23.10;61.60;;;;;;215774;1293;25159;-56
2022/05/06 04:59:14;;;;;;;5.00;3.90;;;23.10;61.50;;;;;;215603;1293;22576;-56
2022/05/06 05:04:27;;;;;;;5.70;4.00;;;23.20;61.60;;;;;;215530;1293;25362;-53
2022/05/06 05:09:37;;;;;;;6.70;4.10;;;23.10;61.40;;;;;;215001;1296;22646;-56
2022/05/06 05:14:42;;;;;;;5.00;3.90;;;23.10;61.80;;;;;;215354;1296;24257;-58
2022/05/06 05:19:47;;;;;;;7.60;3.70;;;23.20;61.40;;;;;;215259;1295;24459;-56
2022/05/06 05:24:57;;;;;;;4.90;3.80;;;23.10;61.90;;;;;;215738;1293;22607;-56
2022/05/06 05:30:17;;;;;;;7.70;4.00;;;23.10;61.40;;;;;;215639;1293;24324;-59
2022/05/06 05:35:22;;;;;;;6.20;4.60;;;23.10;61.40;;;;;;215340;1296;22787;-54
2022/05/06 05:40:30;;;;;;;7.50;4.20;;;23.10;62.10;;;;;;214832;1296;23074;-55
2022/05/06 05:50:58;;;;;;;8.60;3.80;;;23.20;61.90;;;;;;215256;1293;22778;-52
2022/05/06 05:56:07;;;;;;;9.70;4.10;;;23.20;62.30;;;;;;215175;1293;25601;-51
2022/05/06 06:01:14;;;;;;;7.30;3.60;;;23.20;62.10;;;;;;215482;1293;25354;-53
2022/05/06 06:06:18;;;;;;;7.00;3.60;;;23.30;62.20;;;;;;215556;1293;22592;-49
2022/05/06 06:11:26;;;;;;;8.50;3.50;;;23.30;61.90;;;;;;215400;1293;26584;-55
2022/05/06 06:16:31;;;;;;;7.80;3.50;;;23.30;62.00;;;;;;215237;1296;22869;-54
2022/05/06 06:21:35;;;;;;;8.10;3.80;;;23.30;62.30;;;;;;215398;1293;25525;-53
2022/05/06 06:26:42;;;;;;;7.00;3.90;;;23.30;61.80;;;;;;215244;1292;24486;-51
2022/05/06 06:31:51;;;;;;;5.90;3.80;;;23.30;62.20;;;;;;215708;1293;25533;-54
2022/05/06 06:36:55;;;;;;;10.60;4.20;;;23.40;62.20;;;;;;215366;1293;22599;-52
2022/05/06 06:42:01;;;;;;;11.60;3.40;;;23.40;62.50;;;;;;216733;1293;22898;-55
2022/05/06 06:47:19;;;;;;;13.80;4.60;;;23.40;62.00;;;;;;215152;1294;22926;-55
2022/05/06 06:52:31;;;;;;;9.90;3.70;;;23.40;62.30;;;;;;215630;1294;24342;-56
2022/05/06 06:57:34;;;;;;;7.60;3.50;;;23.40;61.80;;;;;;215689;1292;25023;-52
2022/05/06 07:02:39;;;;;;;11.10;4.00;;;23.40;62.20;;;;;;215010;1293;22596;-52
2022/05/06 07:13:25;;;;;;;9.50;3.30;;;23.40;62.00;;;;;;215436;1293;24265;-55
2022/05/06 07:18:29;;;;;;;8.50;3.50;;;23.40;61.80;;;;;;215541;1293;26691;-56
2022/05/06 07:23:33;;;;;;;7.50;4.00;;;23.40;61.40;;;;;;215639;1293;22588;-54
2022/05/06 07:28:36;;;;;;;7.40;3.70;;;23.40;61.50;;;;;;215779;1293;25345;-54
2022/05/06 07:33:41;;;;;;;6.60;3.50;;;23.40;61.70;;;;;;215982;1293;22602;-58
2022/05/06 07:38:45;;;;;;;8.60;4.00;;;23.40;61.20;;;;;;215677;1293;24306;-52
2022/05/06 07:43:48;;;;;;;6.40;3.80;;;23.40;61.30;;;;;;215430;1293;22698;-53
2022/05/06 07:48:54;;;;;;;7.70;3.40;;;23.40;61.00;;;;;;215785;1293;23953;-55
2022/05/06 07:53:58;;;;;;;5.00;3.40;;;23.40;61.20;;;;;;215380;1293;25291;-54
2022/05/06 07:59:02;;;;;;;6.70;3.40;;;23.40;61.20;;;;;;215754;1293;23986;-57
2022/05/06 08:09:33;;;;;;;5.00;3.30;;;23.40;60.90;;;;;;215815;1293;22881;-51
2022/05/06 08:14:37;;;;;;;11.30;3.10;;;23.40;60.70;;;;;;215665;1293;24331;-56
2022/05/06 08:19:41;;;;;;;4.80;3.20;;;23.40;60.50;;;;;;215933;1293;22627;-53
2022/05/06 08:24:45;;;;;;;4.90;3.20;;;23.50;60.40;;;;;;215020;1296;22608;-56
2022/05/06 08:30:12;;;;;;;4.90;3.40;;;23.50;60.30;;;;;;215191;1293;23280;-52
2022/05/06 08:35:15;;;;;;;3.90;3.00;;;23.50;60.10;;;;;;215228;1293;22715;-52
2022/05/06 08:40:21;;;;;;;6.50;3.20;;;23.50;60.00;;;;;;215547;1296;22563;-55
2022/05/06 08:50:53;;;;;;;7.70;3.40;;;23.60;59.80;;;;;;215222;1296;22573;-55
2022/05/06 08:56:02;;;;;;;4.30;3.00;;;23.60;60.10;;;;;;215527;1294;22561;-57
2022/05/06 09:01:11;;;;;;;5.70;3.40;;;23.60;59.80;;;;;;215574;1296;22671;-54
2022/05/06 09:06:25;;;;;;;4.20;3.10;;;23.70;59.60;;;;;;215563;1296;22648;-55
2022/05/06 09:16:55;;;;;;;5.50;3.20;;;23.80;59.50;;;;;;215444;1293;23106;-55
2022/05/06 09:22:06;;;;;;;4.70;3.30;;;23.70;59.20;;;;;;215306;1293;24308;-55
2022/05/06 09:27:11;;;;;;;4.30;3.00;;;23.80;59.10;;;;;;215708;1294;25443;-55
2022/05/06 09:32:21;;;;;;;7.70;3.40;;;23.80;58.60;;;;;;215715;1293;22694;-57
2022/05/06 09:37:39;;;;;;;6.70;3.30;;;23.90;59.30;;;;;;215412;1293;22665;-56
2022/05/06 09:42:59;;;;;;;5.30;2.80;;;23.90;59.10;;;;;;215856;1293;26445;-56
2022/05/06 09:48:03;;;;;;;4.90;2.70;;;23.90;59.00;;;;;;215266;1296;25347;-55
2022/05/06 09:53:09;;;;;;;4.00;2.80;;;23.90;58.60;;;;;;215236;1293;25573;-55
2022/05/06 09:58:14;;;;;;;5.30;2.80;;;23.90;58.50;;;;;;215250;1293;22590;-52
2022/05/06 10:03:18;;;;;;;5.90;3.10;;;23.90;58.50;;;;;;215488;1294;22563;-57
2022/05/06 10:08:23;;;;;;;7.40;2.80;;;24.00;58.50;;;;;;215442;1296;22563;-57
2022/05/06 10:13:38;;;;;;;3.60;2.70;;;24.00;58.40;;;;;;215951;1293;23951;-59
2022/05/06 10:18:49;;;;;;;6.20;3.60;;;24.00;58.30;;;;;;215893;1293;22566;-55
2022/05/06 10:23:56;;;;;;;5.60;3.00;;;24.10;58.20;;;;;;215795;1296;24334;-59
2022/05/06 10:34:23;;;;;;;5.00;2.70;;;24.10;56.00;;;;;;215570;1293;24463;-59
2022/05/06 10:39:38;;;;;;;6.20;2.70;;;24.20;55.50;;;;;;215898;1293;22752;-55
2022/05/06 10:44:48;;;;;;;7.10;3.60;;;24.20;55.30;;;;;;215455;1296;22640;-61
2022/05/06 10:49:52;;;;;;;7.20;3.00;;;24.20;54.10;;;;;;215941;1293;23986;-56
2022/05/06 10:55:03;;;;;;;4.50;2.70;;;24.30;53.80;;;;;;215901;1293;22570;-60
2022/05/06 11:00:07;;;;;;;;;;;24.30;53.20;;;;;;215784;1293;25305;-54
2022/05/06 11:05:15;;;;;;;5.00;2.80;;;24.30;53.00;;;;;;215959;1293;24598;-54
2022/05/06 11:10:22;;;;;;;4.60;2.90;;;24.30;52.50;;;;;;215780;1293;22588;-57
2022/05/06 11:15:30;;;;;;;4.00;2.90;;;24.40;52.20;;;;;;215406;1293;22768;-58
2022/05/06 11:20:38;;;;;;;5.00;3.00;;;24.40;52.40;;;;;;215498;1294;24342;-56
2022/05/06 11:25:47;;;;;;;6.40;3.20;;;24.40;51.70;;;;;;215263;1296;22742;-60
2022/05/06 11:30:52;;;;;;;8.80;2.50;;;24.40;52.10;;;;;;215484;1296;23618;-57
2022/05/06 11:36:01;;;;;;;7.00;2.90;;;24.50;51.40;;;;;;215580;1296;22603;-58
2022/05/06 11:41:07;;;;;;;5.10;3.20;;;24.60;54.80;;;;;;215572;1293;24737;-57
2022/05/06 11:51:44;;;;;;;5.50;2.90;;;24.70;56.70;;;;;;216098;1293;22669;-57
2022/05/06 11:56:48;;;;;;;5.00;2.50;;;24.70;54.70;;;;;;216063;1293;23185;-55
2022/05/06 12:01:51;;;;;;;4.20;2.90;;;24.70;53.90;;;;;;215525;1293;22602;-58
2022/05/06 12:07:01;;;;;;;4.60;2.70;;;24.70;55.10;;;;;;215840;1296;22548;-56
2022/05/06 12:12:13;;;;;;;6.40;2.90;;;24.70;55.50;;;;;;215166;1294;22566;-57
2022/05/06 12:17:22;;;;;;;4.00;2.80;;;24.70;55.70;;;;;;215250;1293;22595;-59
2022/05/06 12:22:28;;;;;;;5.60;2.90;;;24.70;55.70;;;;;;215426;1294;22885;-59
2022/05/06 12:27:36;;;;;;;6.60;2.70;;;24.70;55.70;;;;;;215632;1296;24284;-54
2022/05/06 12:33:12;;;;;;;3.70;2.70;;;24.70;55.70;;;;;;215653;1293;26341;-58
2022/05/06 12:38:51;;;;;;;5.70;2.90;;;24.70;56.10;;;;;;215669;1296;22809;-57
2022/05/06 12:44:24;;;;;;;5.00;2.90;;;24.80;55.70;;;;;;215657;1293;25374;-56
2022/05/06 12:49:43;;;;;;;4.70;2.90;;;24.80;56.00;;;;;;215611;1293;22560;-56
2022/05/06 12:54:50;;;;;;;4.90;2.60;;;24.80;55.70;;;;;;215347;1296;23985;-57
2022/05/06 12:59:57;;;;;;;4.70;3.00;;;24.80;56.00;;;;;;215340;1294;24224;-51
2022/05/06 13:05:15;;;;;;;3.80;2.30;;;24.80;55.70;;;;;;215996;1293;24332;-55
2022/05/06 13:10:21;;;;;;;7.30;2.90;;;24.80;55.70;;;;;;215929;1293;22579;-51
2022/05/06 13:15:35;;;;;;;9.50;4.00;;;24.70;54.00;;;;;;215757;1293;22594;-51
2022/05/06 13:20:40;;;;;;;9.90;3.30;;;24.40;50.80;;;;;;215598;1293;22568;-54
2022/05/06 13:25:49;;;;;;;5.90;2.90;;;24.10;46.10;;;;;;214984;1296;26168;-53
2022/05/06 13:31:02;;;;;;;6.60;2.50;;;23.90;44.50;;;;;;215715;1293;25605;-54
2022/05/06 13:36:12;;;;;;;17.30;3.40;;;23.80;45.20;;;;;;215666;1294;25512;-59
2022/05/06 13:41:23;;;;;;;5.70;2.20;;;23.70;45.00;;;;;;215818;1293;22630;-55
2022/05/06 13:46:58;;;;;;;8.00;2.70;;;23.60;42.90;;;;;;215131;1293;22744;-60
2022/05/06 13:52:30;;;;;;;3.90;2.10;;;23.60;43.30;;;;;;215839;1294;22700;-54
2022/05/06 14:03:30;;;;;;;7.20;2.50;;;23.20;41.60;;;;;;215623;1296;25454;-58
2022/05/06 14:08:49;;;;;;;6.10;2.30;;;23.00;42.10;;;;;;215531;1293;24498;-55
2022/05/06 14:13:59;;;;;;;6.90;2.40;;;23.20;41.60;;;;;;215368;1296;23268;-55
2022/05/06 14:19:02;;;;;;;4.70;2.20;;;23.10;41.30;;;;;;215459;1293;25346;-58
2022/05/06 14:24:10;;;;;;;4.60;2.30;;;23.20;42.10;;;;;;216594;1293;22646;-50
2022/05/06 14:31:09;;;;;;;7.10;3.90;;;23.30;42.40;;;;;;213872;1303;543040;-63
2022/05/06 14:36:19;;;;;;;4.50;3.10;;;23.60;42.40;;;;;;222671;1277;22573;-56
2022/05/06 14:41:37;;;;;;;5.20;2.60;;;23.60;42.90;;;;;;217974;1277;492687;-58
2022/05/06 14:46:47;;;;;;;5.00;2.70;;;23.60;42.40;;;;;;219086;1277;22701;-56
2022/05/06 14:51:56;;;;;;;5.80;2.60;;;23.70;42.40;;;;;;219012;1277;25184;-57
2022/05/06 14:57:12;;;;;;;4.60;2.20;;;23.60;41.60;;;;;;218975;1277;25309;-61
2022/05/06 15:02:16;;;;;;;5.00;2.90;;;23.60;42.40;;;;;;219789;1274;24292;-60
2022/05/06 15:07:19;;;;;;;5.00;2.10;;;23.50;41.50;;;;;;218863;1274;22559;-52
2022/05/06 15:12:25;;;;;;;10.20;2.90;;;23.60;41.50;;;;;;218999;1274;25443;-57
2022/05/06 15:17:37;;;;;;;7.30;2.80;;;23.80;43.70;;;;;;218845;1274;24430;-56
2022/05/06 15:22:50;;;;;;;8.60;2.80;;;24.00;45.70;;;;;;219630;1274;26713;-56
2022/05/06 15:27:58;;;;;;;7.00;2.90;;;24.20;47.20;;;;;;219371;1274;22583;-57
2022/05/06 15:33:28;;;;;;;4.80;2.20;;;24.20;46.10;;;;;;219126;1274;25549;-55
2022/05/06 15:38:37;;;;;;;5.10;2.40;;;24.10;44.60;;;;;;219085;1274;25565;-57
2022/05/06 15:43:43;;;;;;;;;;;24.00;41.90;;;;;;219002;1274;22539;-53
2022/05/06 15:48:48;;;;;;;5.40;2.00;;;23.80;42.60;;;;;;219043;1274;22622;-55
2022/05/06 15:53:54;;;;;;;7.90;2.20;;;23.70;42.40;;;;;;218988;1274;25512;-56
2022/05/06 15:58:59;;;;;;;3.10;1.70;;;23.60;41.40;;;;;;218869;1274;22531;-60
2022/05/06 16:04:06;;;;;;;5.40;2.00;;;23.50;41.30;;;;;;218691;1274;25450;-57
2022/05/06 16:09:11;;;;;;;6.00;2.30;;;23.50;41.00;;;;;;219153;1274;24323;-57
2022/05/06 16:15:17;;;;;;;4.60;2.10;;;23.40;41.00;;;;;;218592;1274;22545;-57
2022/05/06 16:19:44;;;;;;;7.50;2.30;;;23.40;41.30;;;;;;219637;1274;22563;-56
2022/05/06 16:24:48;;;;;;;7.80;2.20;;;23.60;42.90;;;;;;219093;1274;22595;-58
2022/05/06 16:30:14;;;;;;;11.70;3.00;;;23.50;41.90;;;;;;218766;1274;23185;-57
2022/05/06 16:40:54;;;;;;;7.70;2.60;;;23.50;42.80;;;;;;218918;1274;24288;-56
2022/05/06 16:46:05;;;;;;;17.00;2.50;;;23.50;42.10;;;;;;219749;1274;25350;-53
2022/05/06 16:51:10;;;;;;;16.80;2.70;;;23.50;42.20;;;;;;219153;1274;25584;-54
2022/05/06 16:56:18;;;;;;;8.40;2.70;;;23.60;43.60;;;;;;219017;1274;25241;-55
2022/05/06 17:01:28;;;;;;;7.90;2.50;;;23.70;44.00;;;;;;219106;1274;24425;-56
2022/05/06 17:06:35;;;;;;;14.60;3.60;;;23.70;44.50;;;;;;219122;1274;24243;-51
2022/05/06 17:11:41;;;;;;;4.30;2.10;;;23.70;44.90;;;;;;219246;1274;22667;-55
2022/05/06 17:16:56;;;;;;;6.40;2.80;;;23.80;45.70;;;;;;219339;1274;25234;-56
2022/05/06 17:22:01;;;;;;;13.10;2.90;;;23.80;46.20;;;;;;219306;1275;24233;-53
2022/05/06 17:27:12;;;;;;;13.70;3.70;;;23.80;46.10;;;;;;219445;1274;22757;-50
2022/05/06 17:32:30;;;;;;;5.80;2.80;;;23.70;45.10;;;;;;219465;1274;26178;-55
2022/05/06 17:37:34;;;;;;;8.90;2.80;;;23.70;45.70;;;;;;219350;1274;22663;-52
2022/05/06 17:42:38;;;;;;;5.50;2.30;;;23.70;46.50;;;;;;219198;1274;22546;-54
2022/05/06 17:47:41;;;;;;;5.10;2.30;;;23.70;45.90;;;;;;219431;1274;24073;-54
2022/05/06 17:52:58;;;;;;;5.80;2.80;;;23.70;46.80;;;;;;219435;1274;25651;-48
2022/05/06 17:58:03;;;;;;;7.40;2.40;;;23.70;46.70;;;;;;219972;1268;22834;-50
2022/05/06 18:03:12;;;;;;;5.50;2.40;;;23.70;46.80;;;;;;220374;1271;24370;-52
2022/05/06 18:08:19;;;;;;;6.80;2.60;;;23.70;46.90;;;;;;220469;1268;22611;-51
2022/05/06 18:13:25;;;;;;;5.20;2.50;;;23.70;47.10;;;;;;220362;1268;22541;-51
2022/05/06 18:18:33;;;;;;;3.80;2.10;;;23.70;47.30;;;;;;220341;1268;24245;-51
2022/05/06 18:23:41;;;;;;;3.20;2.00;;;23.70;47.50;;;;;;220471;1268;23936;-53
2022/05/06 18:29:03;;;;;;;4.70;2.40;;;23.70;47.90;;;;;;220332;1268;24335;-53
2022/05/06 18:34:14;;;;;;;5.70;2.40;;;23.70;47.90;;;;;;220314;1268;22564;-54
2022/05/06 18:39:21;;;;;;;5.50;2.50;;;23.70;47.90;;;;;;220044;1268;24418;-53
2022/05/06 18:44:27;;;;;;;4.80;2.00;;;23.70;48.10;;;;;;219864;1268;26599;-50
2022/05/06 18:49:31;;;;;;;12.20;3.20;;;23.70;48.60;;;;;;220407;1268;22553;-53
2022/05/06 18:54:36;;;;;;;12.80;2.70;;;23.80;49.20;;;;;;219790;1268;22659;-56
2022/05/06 19:07:54;;;;;;;11.10;3.30;;;23.80;49.40;;;;;;213290;1306;543602;-52
2022/05/06 19:13:09;;;;;;;12.70;3.00;;;23.80;51.60;;;;;;218268;1284;25602;-53
2022/05/06 19:18:13;;;;;;;9.30;3.20;;;23.90;52.10;;;;;;217903;1281;306832;-50
2022/05/06 19:28:40;;;;;;;11.70;3.00;;;23.90;53.10;;;;;;218528;1280;24294;-55
2022/05/06 19:33:46;;;;;;;9.90;2.90;;;23.90;52.90;;;;;;218627;1281;27794;-50
2022/05/06 19:38:53;;;;;;;7.80;3.00;;;23.90;53.20;;;;;;218483;1280;22738;-53
2022/05/06 19:43:57;;;;;;;10.00;2.70;;;23.90;52.80;;;;;;218643;1280;24291;-53
2022/05/06 19:49:01;;;;;;;10.20;3.10;;;23.90;52.80;;;;;;219949;1274;22567;-54
2022/05/06 19:54:04;;;;;;;16.40;2.90;;;23.90;53.10;;;;;;219780;1275;22716;-55
2022/05/06 19:59:08;;;;;;;14.20;4.00;;;23.90;53.70;;;;;;219938;1275;25346;-54
2022/05/06 20:04:13;;;;;;;11.30;3.80;;;23.90;55.30;;;;;;219840;1271;25438;-56
2022/05/06 20:09:17;;;;;;;10.20;3.10;;;23.90;55.80;;;;;;219714;1272;22609;-56
2022/05/06 20:14:20;;;;;;;10.30;3.00;;;23.90;55.30;;;;;;219690;1272;22572;-54
2022/05/06 20:19:24;;;;;;;16.10;3.40;;;23.90;55.60;;;;;;219734;1274;22567;-57
2022/05/06 20:24:28;;;;;;;19.00;3.80;;;23.80;55.70;;;;;;219892;1274;24072;-58
2022/05/06 20:29:32;;;;;;;15.60;4.40;;;23.80;55.60;;;;;;219740;1274;22550;-59
2022/05/06 20:34:36;;;;;;;13.70;3.90;;;23.80;55.50;;;;;;219641;1275;22547;-57
2022/05/06 20:39:41;;;;;;;16.20;5.20;;;23.80;55.40;;;;;;219415;1274;22559;-58
2022/05/06 20:44:45;;;;;;;18.40;3.90;;;23.80;55.30;;;;;;220173;1275;22559;-62
2022/05/06 20:49:48;;;;;;;16.20;4.90;;;23.80;55.30;;;;;;219600;1272;24682;-57
2022/05/06 20:54:54;;;;;;;15.00;4.40;;;23.70;55.50;;;;;;219442;1275;24395;-59
2022/05/06 20:59:59;;;;;;;15.00;4.70;;;23.70;55.70;;;;;;219268;1274;26743;-56
2022/05/06 21:05:05;;;;;;;15.10;5.50;;;23.70;55.70;;;;;;219676;1274;24408;-61
2022/05/06 21:15:31;;;;;;;19.30;6.20;;;23.70;55.80;;;;;;219242;1274;25312;-58
2022/05/06 21:20:35;;;;;;;19.40;5.40;;;23.70;55.70;;;;;;219825;1274;23907;-59
2022/05/06 21:25:41;;;;;;;9.70;4.30;;;23.60;55.70;;;;;;219463;1273;25244;-59
2022/05/06 21:30:44;;;;;;;13.90;4.90;;;23.60;55.30;;;;;;219816;1274;24292;-49
2022/05/06 21:35:48;;;;;;;17.50;5.20;;;23.60;55.10;;;;;;218995;1275;22570;-49
2022/05/06 21:40:52;;;;;;;15.80;5.00;;;23.60;55.80;;;;;;219583;1272;24239;-54
2022/05/06 21:45:56;;;;;;;19.90;7.00;;;23.60;55.50;;;;;;219495;1274;22830;-55
2022/05/06 21:51:04;;;;;;;18.30;6.20;;;23.60;56.60;;;;;;219317;1274;22556;-54
2022/05/06 21:56:09;;;;;;;15.30;5.80;;;23.70;58.40;;;;;;219405;1274;24344;-54
2022/05/06 22:01:17;;;;;;;18.70;5.30;;;23.70;58.60;;;;;;222170;1273;22992;-54
2022/05/06 22:06:21;;;;;;;27.00;7.60;;;23.70;58.20;;;;;;219430;1275;25661;-53
2022/05/06 22:11:29;;;;;;;13.00;5.20;;;23.60;58.40;;;;;;219342;1273;22552;-56
2022/05/06 22:16:36;;;;;;;14.10;5.00;;;23.70;58.00;;;;;;219958;1272;22538;-57
2022/05/06 22:21:40;;;;;;;18.70;5.50;;;23.60;58.30;;;;;;219387;1275;22580;-54
2022/05/06 22:26:45;;;;;;;17.80;5.80;;;23.60;57.70;;;;;;219491;1273;22544;-55
2022/05/06 22:31:49;;;;;;;13.40;4.60;;;23.60;57.70;;;;;;219569;1274;22544;-58
2022/05/06 22:36:53;;;;;;;13.40;4.90;;;23.60;57.40;;;;;;219200;1273;22544;-57
2022/05/06 22:47:20;;;;;;;16.30;5.50;;;23.60;57.30;;;;;;219314;1273;24316;-56
2022/05/06 22:52:27;;;;;;;11.30;4.90;;;23.60;57.30;;;;;;219733;1274;24303;-56
2022/05/06 22:57:30;;;;;;;12.00;4.10;;;23.60;57.20;;;;;;219448;1273;22600;-57
2022/05/06 23:02:34;;;;;;;10.30;4.20;;;23.60;57.00;;;;;;219564;1274;24232;-58
2022/05/06 23:07:38;;;;;;;12.80;4.40;;;23.60;57.00;;;;;;219304;1273;26220;-52
2022/05/06 23:12:41;;;;;;;9.70;4.10;;;23.60;56.70;;;;;;219500;1273;25367;-54
2022/05/06 23:17:46;;;;;;;12.10;4.30;;;23.60;56.40;;;;;;219751;1273;25545;-54
2022/05/06 23:22:49;;;;;;;12.10;4.40;;;23.60;56.30;;;;;;219569;1274;22770;-56
2022/05/06 23:27:53;;;;;;;11.70;4.30;;;23.60;56.30;;;;;;219667;1274;25218;-57
2022/05/06 23:32:57;;;;;;;11.60;4.50;;;23.60;56.60;;;;;;219341;1273;25315;-55
2022/05/06 23:38:01;;;;;;;15.30;5.10;;;23.50;56.90;;;;;;219606;1274;24412;-53
2022/05/06 23:43:05;;;;;;;9.60;4.20;;;23.60;56.50;;;;;;219701;1273;25640;-54
2022/05/06 23:48:09;;;;;;;12.10;4.40;;;23.60;56.60;;;;;;219699;1273;27715;-56
2022/05/06 23:53:12;;;;;;;13.60;4.70;;;23.50;56.50;;;;;;219565;1273;23943;-53
2022/05/06 23:58:16;;;;;;;11.00;4.30;;;23.60;57.10;;;;;;219741;1273;22722;-55
